WetterOnline ( https://www.wetteronline.de )

Wetter aktuell Feldberg Gipfel

Aktuelles Wetter: Feldberg/Schwarzwald (1493m)

6-stündlich | Neueste Meldungen
Ortszeit Temperatur Wetter
Mo, 23.09. 14:00 6.0° C bewölkt
Mo, 23.09. 8:00 6.5° C Sprühregen
Mo, 23.09. 2:00 7.5° C Regen
So, 22.09. 20:00 14.4° C bedeckt
So, 22.09. 14:00 16.9° C leicht bewölkt
So, 22.09. 8:00 14.3° C leicht bewölkt
So, 22.09. 2:00 13.9° C leicht bewölkt
Sa, 21.09. 20:00 12.9° C wolkenlos
Ortszeit Temperatur Wetter
Mo, 23.09. 19:30 6.5° C bewölkt
Mo, 23.09. 19:20 6.5° C bewölkt
Mo, 23.09. 19:10 6.6° C bewölkt
Mo, 23.09. 19:00 7.0° C leicht bewölkt
Mo, 23.09. 18:50 7.0° C leicht bewölkt
Mo, 23.09. 18:40 7.4° C wolkenlos
Mo, 23.09. 18:30 7.4° C leicht bewölkt
Mo, 23.09. 18:00 7.7° C wolkig
Mo, 23.09. 17:30 8.0° C leicht bewölkt
Mo, 23.09. 17:00 7.6° C wolkig
Mo, 23.09. 16:30 7.2° C wolkig
Ortszeit Relative Feuchte Sichtweite
Mo, 23.09. 14:00 97% 45 km
Mo, 23.09. 8:00 100% 100 m
Mo, 23.09. 2:00 99% 100 m
So, 22.09. 20:00 67% 55 km
So, 22.09. 14:00 57% 40 km
So, 22.09. 8:00 51% 65 km
So, 22.09. 2:00 53% >70 km
Sa, 21.09. 20:00 65% 45 km
Ortszeit Relative Feuchte Sichtweite
Mo, 23.09. 19:30 97% 20 km
Mo, 23.09. 19:20 97% -
Mo, 23.09. 19:10 93% -
Mo, 23.09. 19:00 86% 60 km
Mo, 23.09. 18:50 86% -
Mo, 23.09. 18:40 82% -
Mo, 23.09. 18:30 85% 45 km
Mo, 23.09. 18:00 90% 45 km
Mo, 23.09. 17:30 85% 45 km
Mo, 23.09. 17:00 90% 55 km
Mo, 23.09. 16:30 90% 35 km
Ortszeit Niederschlagsmenge Niederschlagsart
Mo, 23.09. 14:00 5 l/m2 in 6 Std. Regen
Mo, 23.09. 8:00 32 l/m2 in 12 Std. Regen
Mo, 23.09. 2:00 17 l/m2 in 6 Std. Regen
So, 22.09. 20:00 0.1 l/m2 in 12 Std. -
So, 22.09. 14:00 0.1 l/m2 in 6 Std. Regen
So, 22.09. 8:00 0.0 l/m2 in 12 Std. -
So, 22.09. 2:00 0.0 l/m2 in 6 Std. -
Sa, 21.09. 20:00 0.0 l/m2 in 12 Std. -
Ortszeit Niederschlagsmenge Niederschlagsart
Mo, 23.09. 19:30 0.0 l/m2 in 1 Std. -
Mo, 23.09. 19:20 keine Meldung -
Mo, 23.09. 19:10 keine Meldung -
Mo, 23.09. 19:00 0.0 l/m2 in 1 Std. -
Mo, 23.09. 18:50 keine Meldung -
Mo, 23.09. 18:40 keine Meldung -
Mo, 23.09. 18:30 0.0 l/m2 in 1 Std. -
Mo, 23.09. 18:00 0.0 l/m2 in 1 Std. -
Mo, 23.09. 17:30 0.0 l/m2 in 1 Std. -
Mo, 23.09. 17:00 0.0 l/m2 in 1 Std. -
Mo, 23.09. 16:30 0.0 l/m2 in 1 Std. -
Ortszeit Stärke Spitze Richtung
km/h Bft. km/h Grad Sektor
Mo, 23.09. 14:00 24 4 54 250° W
Mo, 23.09. 8:00 29 5 58 250° W
Mo, 23.09. 2:00 35 5 61 290° W
So, 22.09. 20:00 18 3 29 210° SW
So, 22.09. 14:00 11 2 25 200° S
So, 22.09. 8:00 22 4 26 60° NO
So, 22.09. 2:00 9 2 37 190° S
Sa, 21.09. 20:00 19 3 22 110° O
Ortszeit Stärke Spitze Richtung
km/h Bft. km/h Grad Sektor
Mo, 23.09. 19:30 11 2 22 250° W
Mo, 23.09. 19:20 11 2 - 250° W
Mo, 23.09. 19:10 11 2 - 270° W
Mo, 23.09. 19:00 14 3 32 270° W
Mo, 23.09. 18:50 14 3 - 270° W
Mo, 23.09. 18:40 18 3 - 270° W
Mo, 23.09. 18:30 22 4 32 250° W
Mo, 23.09. 18:00 22 4 43 260° W
Mo, 23.09. 17:30 22 4 44 260° W
Mo, 23.09. 17:00 26 4 35 260° W
Mo, 23.09. 16:30 25 4 36 260° W
Ortszeit Untergrenze Bedeckung Gattung
total tief tief mittel hoch
Mo, 23.09. 14:00 <30 m 7/8 0/8 - - -
Mo, 23.09. 8:00 <30 m 8/8 0/8 - - -
Mo, 23.09. 2:00 <30 m 7/8 0/8 - - -
So, 22.09. 20:00 1110 m 8/8 8/8 - - -
So, 22.09. 14:00 7800 m 3/8 0/8 - - -
So, 22.09. 8:00 1800 m 4/8 1/8 - - -
So, 22.09. 2:00 6000 m 4/8 3/8 - - -
Sa, 21.09. 20:00 - 0/8 0/8 - - -
Ortszeit Bedeckungsgrad in Achtel und Wolkenuntergrenze
Mo, 23.09. 19:30 5(90m) 7(240m) 7(1110m)
Mo, 23.09. 19:20 5(90m) 7(240m) 7(1110m)
Mo, 23.09. 19:10 4(150m) 5(240m) 7(1110m)
Mo, 23.09. 19:00 1(240m) 5(1110m)
Mo, 23.09. 18:50 1(240m) 2(1140m)
Mo, 23.09. 18:40 keine Wolken
Mo, 23.09. 18:30 3(210m) 4(330m)
Mo, 23.09. 18:00 5(210m) 5(360m)
Mo, 23.09. 17:30 4(330m) 4(540m) 5(570m)
Mo, 23.09. 17:00 3(240m) 5(480m) 5(600m)
Mo, 23.09. 16:30 5(180m) 6(360m) 6(840m)
Ortszeit Stationsdruck (hPa) Tendenz (hPa in 3 Std.)
Mo, 23.09. 14:00 851 0,0
Mo, 23.09. 8:00 850 + 0,7
Mo, 23.09. 2:00 849 + 1,3
So, 22.09. 20:00 848 - 0,2
So, 22.09. 14:00 849 - 0,5
So, 22.09. 8:00 849 - 0,9
So, 22.09. 2:00 850 - 1,1
Sa, 21.09. 20:00 852 - 0,9
Ortszeit Stationsdruck (hPa) Tendenz (hPa in 3 Std.)
Mo, 23.09. 19:30 852 + 0,4
Mo, 23.09. 19:20 852 keine Meldung
Mo, 23.09. 19:10 852 keine Meldung
Mo, 23.09. 19:00 852 + 0,6
Mo, 23.09. 18:50 852 keine Meldung
Mo, 23.09. 18:40 852 keine Meldung
Mo, 23.09. 18:30 852 + 0,3
Mo, 23.09. 18:00 852 + 0,3
Mo, 23.09. 17:30 852 + 0,1
Mo, 23.09. 17:00 852 + 0,1
Mo, 23.09. 16:30 852 + 0,3
Ortszeit Schneehöhe (cm)
Mo, 23.09. 14:00 0
Mo, 23.09. 8:00 0
Mo, 23.09. 2:00 0
So, 22.09. 20:00 0
So, 22.09. 14:00 0
So, 22.09. 8:00 0
So, 22.09. 2:00 0
Sa, 21.09. 20:00 0
Ortszeit Schneehöhe (cm)
Mo, 23.09. 19:30 0
Mo, 23.09. 19:20 0
Mo, 23.09. 19:10 0
Mo, 23.09. 19:00 0
Mo, 23.09. 18:50 0
Mo, 23.09. 18:40 0
Mo, 23.09. 18:30 0
Mo, 23.09. 18:00 0
Mo, 23.09. 17:30 0
Mo, 23.09. 17:00 0
Mo, 23.09. 16:30 0
Link zu dieser Seite / Seite empfehlen

Das Wetter in ...